createdAt,value
2023-01-31T00:45:58.508Z,3.17
2023-01-31T05:21:14.356Z,3.37
2023-01-31T05:49:11.815Z,3.59
2023-01-31T05:52:14.852Z,3.54
2023-01-31T05:55:51.002Z,3.48
2023-01-31T06:24:00.172Z,3.40
2023-01-31T06:27:16.914Z,3.38
2023-01-31T06:46:22.619Z,3.54
2023-01-31T06:49:19.651Z,3.48
2023-01-31T06:52:06.306Z,3.50
2023-01-31T06:54:52.861Z,3.49
2023-01-31T06:57:49.780Z,3.42
2023-01-31T07:00:36.246Z,3.42
2023-01-31T07:04:34.125Z,3.43
2023-01-31T07:08:36.369Z,3.42
2023-01-31T07:11:23.032Z,3.43
2023-01-31T07:14:09.884Z,3.41
2023-01-31T07:16:56.656Z,3.48
2023-01-31T07:19:43.510Z,3.55
2023-01-31T07:22:30.213Z,3.54
2023-01-31T07:25:21.725Z,3.61
2023-01-31T07:31:48.902Z,3.69
2023-01-31T07:35:07.480Z,3.67
2023-01-31T07:39:04.667Z,3.71
2023-01-31T07:43:03.331Z,3.83
2023-01-31T07:47:01.980Z,3.77
2023-01-31T07:51:02.092Z,3.70
2023-01-31T07:53:49.290Z,3.72
2023-01-31T07:56:35.591Z,3.74
2023-01-31T07:59:22.084Z,3.71
2023-01-31T08:02:31.833Z,3.74
2023-01-31T08:05:48.424Z,3.73
2023-01-31T08:09:14.642Z,3.77
2023-01-31T08:12:42.991Z,3.80
2023-01-31T08:16:40.926Z,3.84
2023-01-31T08:20:59.006Z,3.95
2023-01-31T08:24:27.819Z,3.97
2023-01-31T08:27:51.230Z,4.01
2023-01-31T08:32:05.958Z,3.94
2023-01-31T08:35:26.033Z,4.01
2023-01-31T08:38:16.580Z,4.07
2023-01-31T08:41:05.478Z,4.16
2023-01-31T08:43:56.769Z,4.06
2023-01-31T08:46:45.724Z,4.08
2023-01-31T08:49:36.297Z,4.01
2023-01-31T08:52:22.680Z,4.09
2023-01-31T08:58:34.079Z,4.23
2023-01-31T09:02:43.234Z,4.27
2023-01-31T09:05:31.959Z,4.40
2023-01-31T09:08:18.383Z,4.62
2023-01-31T09:11:04.806Z,4.76
2023-01-31T09:13:51.701Z,4.87
2023-01-31T09:16:39.005Z,4.82
2023-01-31T09:19:25.567Z,4.91
2023-01-31T09:22:15.074Z,4.84
2023-01-31T09:25:02.241Z,4.87
2023-01-31T09:27:52.551Z,4.90
2023-01-31T09:30:39.032Z,4.94
2023-01-31T09:33:25.411Z,4.75
2023-01-31T09:36:15.519Z,4.67
2023-01-31T09:39:02.037Z,4.63
2023-01-31T09:41:57.427Z,4.52
2023-01-31T09:44:48.872Z,4.49
2023-01-31T09:47:42.673Z,4.46
2023-01-31T09:50:42.413Z,4.57
2023-01-31T09:53:32.817Z,4.56
2023-01-31T09:56:35.967Z,4.53
2023-01-31T09:59:29.522Z,4.65
2023-01-31T10:02:28.462Z,4.80
2023-01-31T10:05:40.707Z,4.75
2023-01-31T10:08:53.214Z,4.81
2023-01-31T10:11:47.323Z,4.85
2023-01-31T10:14:42.109Z,4.95
2023-01-31T10:17:35.113Z,5.02
2023-01-31T10:20:49.931Z,5.07
2023-01-31T10:23:42.135Z,5.03
2023-01-31T10:26:32.069Z,4.95
2023-01-31T10:29:29.446Z,4.87
2023-01-31T10:32:28.968Z,5.00
2023-01-31T10:35:21.276Z,5.00
2023-01-31T10:38:17.699Z,4.95
2023-01-31T10:41:14.977Z,4.89
2023-01-31T10:44:07.243Z,4.90
2023-01-31T10:46:58.607Z,5.06
2023-01-31T10:49:48.698Z,5.29
2023-01-31T10:52:43.947Z,5.23
2023-01-31T10:55:53.004Z,5.29
2023-01-31T10:58:40.022Z,5.58
2023-01-31T11:01:28.064Z,5.70
2023-01-31T11:04:26.666Z,5.65
2023-01-31T11:07:14.108Z,5.27
2023-01-31T11:10:00.433Z,5.03
2023-01-31T11:12:57.390Z,5.08
2023-01-31T11:15:44.443Z,5.26
2023-01-31T11:18:35.264Z,5.30
2023-01-31T11:21:29.338Z,5.35
2023-01-31T11:24:30.716Z,5.11
2023-01-31T11:27:42.118Z,4.84
2023-01-31T11:30:35.260Z,4.75
2023-01-31T11:33:44.598Z,4.83
2023-01-31T11:36:41.099Z,4.72
2023-01-31T11:39:34.226Z,4.68
2023-01-31T11:42:21.088Z,4.63
2023-01-31T11:45:33.154Z,4.77
2023-01-31T11:48:25.589Z,4.91
2023-01-31T11:51:27.161Z,4.89
2023-01-31T11:54:20.438Z,4.83
2023-01-31T11:57:17.937Z,4.80
2023-01-31T12:00:28.811Z,4.85
2023-01-31T12:03:17.980Z,4.87
2023-01-31T12:06:55.918Z,4.98
2023-01-31T12:09:44.195Z,5.22
2023-01-31T12:12:35.708Z,5.30
2023-01-31T12:15:28.357Z,5.42
2023-01-31T12:18:31.406Z,5.55
2023-01-31T12:21:50.581Z,5.94
2023-01-31T12:25:18.851Z,6.20
2023-01-31T12:39:54.638Z,6.99
2023-01-31T12:43:12.434Z,6.76
2023-01-31T12:46:30.396Z,6.52
2023-01-31T12:49:16.715Z,6.28
2023-01-31T12:52:32.301Z,6.05
2023-01-31T12:55:30.965Z,5.77
2023-01-31T12:58:53.635Z,5.66
2023-01-31T13:01:58.351Z,5.53
2023-01-31T13:05:08.858Z,5.51
2023-01-31T13:08:11.498Z,5.64
2023-01-31T13:11:30.703Z,5.66
2023-01-31T13:14:23.067Z,5.58
2023-01-31T13:17:18.768Z,5.56
2023-01-31T13:20:19.560Z,5.47
2023-01-31T13:23:17.485Z,5.37
2023-01-31T13:26:11.244Z,5.30
2023-01-31T13:29:05.426Z,5.36
2023-01-31T13:32:02.278Z,5.30
2023-01-31T13:34:56.300Z,5.12
2023-01-31T13:37:46.018Z,5.13
2023-01-31T13:40:38.809Z,5.07
2023-01-31T13:43:25.845Z,5.03
2023-01-31T13:46:16.605Z,4.79
2023-01-31T13:49:50.932Z,4.74
2023-01-31T13:52:46.680Z,4.63
2023-01-31T13:55:39.855Z,4.59
2023-01-31T13:59:56.589Z,4.30
2023-01-31T14:03:04.751Z,4.21
2023-01-31T14:05:52.993Z,4.18
2023-01-31T14:09:22.332Z,4.15
2023-01-31T14:12:15.653Z,4.16
2023-01-31T14:15:10.722Z,4.26
2023-01-31T14:17:59.976Z,4.28
2023-01-31T14:20:46.646Z,4.16
2023-01-31T14:23:47.253Z,4.13
2023-01-31T14:26:45.858Z,3.99
2023-01-31T14:30:44.590Z,3.92
2023-01-31T14:36:19.157Z,3.95
2023-01-31T14:39:33.279Z,3.92
2023-01-31T14:43:30.694Z,3.83
2023-01-31T15:03:38.083Z,3.84
2023-01-31T15:06:43.991Z,3.80
2023-01-31T15:11:13.110Z,3.70
2023-01-31T15:15:35.044Z,3.67
2023-01-31T15:18:25.887Z,3.62
2023-01-31T15:21:40.575Z,3.55
2023-01-31T15:24:35.439Z,3.57
2023-01-31T15:27:28.780Z,3.53
2023-01-31T15:30:22.256Z,3.50
2023-01-31T15:33:27.008Z,3.46
2023-01-31T15:36:22.106Z,3.46
2023-01-31T15:39:49.402Z,3.38
2023-01-31T15:42:37.080Z,3.34
2023-01-31T15:45:27.652Z,3.28
2023-01-31T15:48:17.341Z,3.29
2023-01-31T15:51:05.126Z,3.33
2023-01-31T15:54:06.474Z,3.32
2023-01-31T15:56:54.037Z,3.29
2023-01-31T15:59:45.943Z,3.27
2023-01-31T16:02:34.705Z,3.28
2023-01-31T16:05:22.944Z,3.32
2023-01-31T16:08:25.953Z,3.30
2023-01-31T16:11:13.579Z,3.30
2023-01-31T16:14:03.914Z,3.26
2023-01-31T16:16:56.610Z,3.22
2023-01-31T16:19:49.115Z,3.24
2023-01-31T16:22:36.363Z,3.25
2023-01-31T16:25:23.480Z,3.19
2023-01-31T16:28:12.618Z,3.23
2023-01-31T16:31:12.306Z,3.27
2023-01-31T16:34:01.776Z,3.19
2023-01-31T16:36:54.246Z,3.19
2023-01-31T16:39:52.402Z,3.21
2023-01-31T16:42:39.793Z,3.18
2023-01-31T16:45:34.695Z,3.18
2023-01-31T16:48:32.979Z,3.16
2023-01-31T16:51:22.917Z,3.13
2023-01-31T16:54:16.848Z,3.23
2023-01-31T16:57:05.917Z,3.21
2023-01-31T16:59:55.457Z,3.25
2023-01-31T17:07:37.221Z,3.23
2023-01-31T17:10:28.940Z,3.22
2023-01-31T17:13:23.361Z,3.23
2023-01-31T17:17:39.651Z,3.21
2023-01-31T17:20:30.303Z,3.19
2023-01-31T17:23:19.506Z,3.20
2023-01-31T17:26:16.205Z,3.22
2023-01-31T17:29:03.831Z,3.19
2023-01-31T17:31:52.025Z,3.23
2023-01-31T17:34:46.568Z,3.25
2023-01-31T17:37:35.549Z,3.21
2023-01-31T17:40:23.639Z,3.21
2023-01-31T17:43:18.229Z,3.22
2023-01-31T17:46:06.548Z,3.19
2023-01-31T17:48:54.819Z,3.15
2023-01-31T17:51:42.894Z,3.13
2023-01-31T17:54:31.503Z,3.09
2023-01-31T17:57:19.323Z,3.06
2023-01-31T18:00:12.138Z,3.08
2023-01-31T18:03:00.736Z,3.06
2023-01-31T18:05:49.517Z,3.07
2023-01-31T18:08:38.658Z,3.10
2023-01-31T18:11:26.436Z,3.13
2023-01-31T18:24:56.369Z,3.24
2023-01-31T18:27:49.637Z,3.19
2023-01-31T18:30:38.057Z,3.18
2023-01-31T18:33:26.681Z,3.13
2023-01-31T18:36:17.526Z,3.08
2023-01-31T18:39:20.916Z,3.01
2023-01-31T18:42:54.883Z,2.99
2023-01-31T18:46:55.821Z,3.01
2023-01-31T18:49:44.638Z,2.98
2023-01-31T18:52:34.756Z,2.95
2023-01-31T18:55:23.034Z,2.99
2023-01-31T18:58:12.625Z,2.97
2023-01-31T19:11:41.238Z,3.13
2023-01-31T19:14:29.610Z,3.11
2023-01-31T19:17:17.903Z,3.10
2023-01-31T19:20:06.744Z,3.00
2023-01-31T19:23:26.332Z,2.94
2023-01-31T19:26:16.666Z,2.94
2023-01-31T19:29:15.612Z,2.85
2023-01-31T19:32:03.775Z,2.84
2023-01-31T19:34:53.992Z,2.81
2023-01-31T19:37:42.461Z,2.76
2023-01-31T19:40:30.781Z,2.75
2023-01-31T19:43:19.311Z,2.74
2023-01-31T19:46:08.244Z,2.73
2023-01-31T19:48:57.315Z,2.71
2023-01-31T19:51:45.645Z,2.70
2023-01-31T19:54:41.921Z,2.74
2023-01-31T19:57:30.205Z,2.77
2023-01-31T20:00:18.840Z,2.75
2023-01-31T20:03:06.218Z,2.75
2023-01-31T20:05:54.688Z,2.74
2023-01-31T20:08:59.589Z,2.73
2023-01-31T20:11:48.790Z,2.75
2023-01-31T20:14:36.799Z,2.82
2023-01-31T20:17:25.740Z,2.84
2023-01-31T20:20:14.337Z,2.85
2023-01-31T20:23:02.231Z,2.88
2023-01-31T20:25:53.487Z,2.90
2023-01-31T20:28:42.361Z,2.90
2023-01-31T20:31:31.446Z,2.88
2023-01-31T20:34:19.115Z,2.96
2023-01-31T20:37:06.730Z,2.93
2023-01-31T20:39:54.120Z,2.88
2023-01-31T20:42:41.626Z,2.82
2023-01-31T20:45:29.686Z,2.82
2023-01-31T20:49:00.161Z,2.75
2023-01-31T20:53:00.713Z,2.73
2023-01-31T20:56:08.218Z,2.72
2023-01-31T20:58:55.063Z,2.69
2023-01-31T21:01:43.504Z,2.71
2023-01-31T21:04:35.330Z,2.73
2023-01-31T21:10:13.033Z,2.73
2023-01-31T21:24:58.080Z,2.93
2023-01-31T21:27:43.154Z,2.90
2023-01-31T21:30:28.664Z,2.87
2023-01-31T21:33:13.875Z,2.85
2023-01-31T21:36:05.961Z,2.84
2023-01-31T21:38:52.487Z,2.86
2023-01-31T21:41:56.361Z,2.83
2023-01-31T21:44:42.405Z,2.85
2023-01-31T21:47:28.450Z,2.87
2023-01-31T21:50:42.315Z,2.87
2023-01-31T21:54:40.308Z,2.87
2023-01-31T21:57:26.622Z,2.88
2023-01-31T22:00:14.249Z,2.82
2023-01-31T22:03:03.347Z,2.82
2023-01-31T22:05:49.753Z,2.79
2023-01-31T22:08:36.436Z,2.78
2023-01-31T22:11:38.863Z,2.70
2023-01-31T22:14:25.120Z,2.51
2023-01-31T22:17:11.550Z,2.30
2023-01-31T22:19:58.324Z,2.19
2023-01-31T22:22:45.692Z,2.11
2023-01-31T22:25:32.036Z,2.02
2023-01-31T22:28:18.150Z,1.99
2023-01-31T22:31:06.826Z,2.04
2023-01-31T22:33:53.887Z,2.07
2023-01-31T22:36:42.759Z,2.06
2023-01-31T22:39:28.824Z,2.08
2023-01-31T22:42:15.313Z,2.13
2023-01-31T22:45:01.748Z,2.15
2023-01-31T22:47:48.240Z,2.15
2023-01-31T22:51:24.536Z,2.15
2023-01-31T22:54:10.883Z,2.15
2023-01-31T22:56:57.310Z,2.18
2023-01-31T23:00:11.526Z,2.19
2023-01-31T23:03:29.708Z,2.27
2023-01-31T23:06:17.949Z,2.29
2023-01-31T23:09:05.541Z,2.34
2023-01-31T23:11:51.810Z,2.37
2023-01-31T23:14:38.171Z,2.41
2023-01-31T23:17:39.707Z,2.45
2023-01-31T23:20:26.332Z,2.47
2023-01-31T23:23:13.147Z,2.56
2023-01-31T23:26:00.172Z,2.59
2023-01-31T23:28:46.682Z,2.65
2023-01-31T23:31:33.316Z,2.70
2023-01-31T23:34:20.152Z,2.74
2023-01-31T23:37:06.622Z,2.79
2023-01-31T23:39:53.230Z,2.84
2023-01-31T23:42:39.750Z,2.89
2023-01-31T23:45:26.297Z,2.97
2023-01-31T23:48:12.868Z,3.02
2023-01-31T23:51:04.883Z,3.03
2023-01-31T23:53:51.603Z,3.04
2023-01-31T23:56:38.274Z,3.02
2023-01-31T23:59:24.683Z,2.99
